sensor_id;sensor_type;location;lat;lon;timestamp;pressure;altitude;pressure_sealevel;temperature;humidity
43298;BME280;28892;55.640;37.532;2023-02-19T00:00:59;97153.78;;;-5.70;60.81
43298;BME280;28892;55.640;37.532;2023-02-19T00:03:28;97147.50;;;-5.78;60.87
43298;BME280;28892;55.640;37.532;2023-02-19T00:05:54;97141.38;;;-5.77;61.22
43298;BME280;28892;55.640;37.532;2023-02-19T00:08:20;97134.91;;;-6.02;61.67
43298;BME280;28892;55.640;37.532;2023-02-19T00:10:45;97150.16;;;-5.89;61.94
43298;BME280;28892;55.640;37.532;2023-02-19T00:13:11;97141.91;;;-5.83;61.33
43298;BME280;28892;55.640;37.532;2023-02-19T00:15:37;97137.13;;;-5.87;61.32
43298;BME280;28892;55.640;37.532;2023-02-19T00:18:03;97133.31;;;-5.93;61.20
43298;BME280;28892;55.640;37.532;2023-02-19T00:20:28;97127.03;;;-6.32;62.65
43298;BME280;28892;55.640;37.532;2023-02-19T00:22:54;97131.72;;;-6.15;62.53
43298;BME280;28892;55.640;37.532;2023-02-19T00:25:20;97123.84;;;-5.83;62.10
43298;BME280;28892;55.640;37.532;2023-02-19T00:27:45;97127.63;;;-5.87;61.42
43298;BME280;28892;55.640;37.532;2023-02-19T00:30:11;97126.53;;;-5.94;61.89
43298;BME280;28892;55.640;37.532;2023-02-19T00:32:37;97119.25;;;-5.69;61.58
43298;BME280;28892;55.640;37.532;2023-02-19T00:35:03;97115.81;;;-5.80;61.46
43298;BME280;28892;55.640;37.532;2023-02-19T00:37:29;97116.00;;;-5.62;60.91
43298;BME280;28892;55.640;37.532;2023-02-19T00:39:55;97112.91;;;-5.55;60.93
43298;BME280;28892;55.640;37.532;2023-02-19T00:42:20;97122.69;;;-5.59;60.75
43298;BME280;28892;55.640;37.532;2023-02-19T00:44:46;97113.31;;;-5.50;60.04
43298;BME280;28892;55.640;37.532;2023-02-19T00:47:12;97113.38;;;-5.81;60.60
43298;BME280;28892;55.640;37.532;2023-02-19T00:49:38;97100.44;;;-5.81;61.35
43298;BME280;28892;55.640;37.532;2023-02-19T00:52:03;97099.06;;;-5.44;60.12
43298;BME280;28892;55.640;37.532;2023-02-19T00:54:29;97095.50;;;-5.63;59.91
43298;BME280;28892;55.640;37.532;2023-02-19T00:56:57;97096.75;;;-5.38;59.98
43298;BME280;28892;55.640;37.532;2023-02-19T00:59:23;97091.75;;;-5.39;59.48
43298;BME280;28892;55.640;37.532;2023-02-19T01:01:48;97089.78;;;-5.67;60.24
43298;BME280;28892;55.640;37.532;2023-02-19T01:04:15;97079.06;;;-6.03;61.53
43298;BME280;28892;55.640;37.532;2023-02-19T01:06:41;97084.38;;;-6.05;62.39
43298;BME280;28892;55.640;37.532;2023-02-19T01:09:07;97078.31;;;-5.84;61.59
43298;BME280;28892;55.640;37.532;2023-02-19T01:11:33;97072.38;;;-5.55;60.48
43298;BME280;28892;55.640;37.532;2023-02-19T01:14:00;97067.09;;;-5.63;60.31
43298;BME280;28892;55.640;37.532;2023-02-19T01:16:26;97059.06;;;-5.50;60.22
43298;BME280;28892;55.640;37.532;2023-02-19T01:18:52;97070.19;;;-5.69;60.99
43298;BME280;28892;55.640;37.532;2023-02-19T01:21:23;97063.72;;;-5.44;60.75
43298;BME280;28892;55.640;37.532;2023-02-19T01:23:50;97067.38;;;-5.37;60.64
43298;BME280;28892;55.640;37.532;2023-02-19T01:26:19;97057.59;;;-5.33;60.00
43298;BME280;28892;55.640;37.532;2023-02-19T01:28:46;97061.50;;;-5.58;60.46
43298;BME280;28892;55.640;37.532;2023-02-19T01:31:15;97054.59;;;-5.38;60.41
43298;BME280;28892;55.640;37.532;2023-02-19T01:33:51;97043.03;;;-5.34;59.94
43298;BME280;28892;55.640;37.532;2023-02-19T01:36:18;97052.38;;;-5.63;60.44
43298;BME280;28892;55.640;37.532;2023-02-19T01:38:44;97043.47;;;-5.99;61.26
43298;BME280;28892;55.640;37.532;2023-02-19T01:41:15;97049.41;;;-5.68;61.25
43298;BME280;28892;55.640;37.532;2023-02-19T01:46:44;97061.16;;;-6.05;62.27
43298;BME280;28892;55.640;37.532;2023-02-19T01:52:09;97048.19;;;-6.14;62.91
43298;BME280;28892;55.640;37.532;2023-02-19T01:54:37;97046.72;;;-5.97;62.39
43298;BME280;28892;55.640;37.532;2023-02-19T01:57:07;97049.59;;;-5.91;61.44
43298;BME280;28892;55.640;37.532;2023-02-19T01:59:36;97033.56;;;-6.04;61.58
43298;BME280;28892;55.640;37.532;2023-02-19T02:02:03;97056.84;;;-6.25;62.71
43298;BME280;28892;55.640;37.532;2023-02-19T02:04:30;97041.69;;;-6.09;62.52
43298;BME280;28892;55.640;37.532;2023-02-19T02:06:58;97050.41;;;-6.00;62.37
43298;BME280;28892;55.640;37.532;2023-02-19T02:09:27;97050.56;;;-6.01;62.00
43298;BME280;28892;55.640;37.532;2023-02-19T02:12:13;97048.06;;;-6.13;62.54
43298;BME280;28892;55.640;37.532;2023-02-19T02:14:44;97050.00;;;-5.95;62.38
43298;BME280;28892;55.640;37.532;2023-02-19T02:17:30;97046.28;;;-5.62;61.05
43298;BME280;28892;55.640;37.532;2023-02-19T02:22:50;97028.72;;;-6.28;62.62
43298;BME280;28892;55.640;37.532;2023-02-19T02:30:58;97036.72;;;-6.32;63.23
43298;BME280;28892;55.640;37.532;2023-02-19T02:34:51;97036.31;;;-6.27;62.65
43298;BME280;28892;55.640;37.532;2023-02-19T02:36:48;97027.81;;;-6.18;62.85
43298;BME280;28892;55.640;37.532;2023-02-19T02:39:19;97028.75;;;-6.19;62.11
43298;BME280;28892;55.640;37.532;2023-02-19T02:41:55;97027.78;;;-6.27;63.04
43298;BME280;28892;55.640;37.532;2023-02-19T02:44:42;97021.53;;;-6.25;62.31
43298;BME280;28892;55.640;37.532;2023-02-19T02:47:48;97023.25;;;-5.94;62.02
43298;BME280;28892;55.640;37.532;2023-02-19T02:50:23;97017.97;;;-6.34;62.75
43298;BME280;28892;55.640;37.532;2023-02-19T02:52:53;97025.97;;;-5.86;61.09
43298;BME280;28892;55.640;37.532;2023-02-19T02:55:42;97024.09;;;-5.84;61.12
43298;BME280;28892;55.640;37.532;2023-02-19T02:58:10;97021.19;;;-6.00;61.56
43298;BME280;28892;55.640;37.532;2023-02-19T03:00:38;97022.16;;;-6.42;62.41
43298;BME280;28892;55.640;37.532;2023-02-19T03:03:24;97010.69;;;-6.19;62.87
43298;BME280;28892;55.640;37.532;2023-02-19T03:05:56;97012.66;;;-5.81;61.10
43298;BME280;28892;55.640;37.532;2023-02-19T03:08:28;97024.22;;;-5.76;60.76
43298;BME280;28892;55.640;37.532;2023-02-19T03:11:03;96996.34;;;-5.82;60.77
43298;BME280;28892;55.640;37.532;2023-02-19T03:13:52;97012.25;;;-6.37;61.95
43298;BME280;28892;55.640;37.532;2023-02-19T03:16:39;97014.16;;;-6.29;62.82
43298;BME280;28892;55.640;37.532;2023-02-19T03:19:27;97016.59;;;-5.87;62.28
43298;BME280;28892;55.640;37.532;2023-02-19T03:22:02;97016.31;;;-6.04;62.32
43298;BME280;28892;55.640;37.532;2023-02-19T03:24:40;96995.97;;;-6.69;64.73
43298;BME280;28892;55.640;37.532;2023-02-19T03:27:31;97001.81;;;-6.36;65.05
43298;BME280;28892;55.640;37.532;2023-02-19T03:30:04;96997.66;;;-5.97;64.12
43298;BME280;28892;55.640;37.532;2023-02-19T03:32:39;97008.69;;;-5.95;63.42
43298;BME280;28892;55.640;37.532;2023-02-19T03:35:20;97007.47;;;-6.01;63.10
43298;BME280;28892;55.640;37.532;2023-02-19T03:38:16;96990.50;;;-6.04;63.32
43298;BME280;28892;55.640;37.532;2023-02-19T03:40:59;96989.06;;;-6.27;63.13
43298;BME280;28892;55.640;37.532;2023-02-19T03:43:37;96993.91;;;-6.34;63.88
43298;BME280;28892;55.640;37.532;2023-02-19T03:46:11;96997.41;;;-6.04;63.68
43298;BME280;28892;55.640;37.532;2023-02-19T03:48:55;96994.06;;;-6.36;63.60
43298;BME280;28892;55.640;37.532;2023-02-19T03:51:26;96999.00;;;-6.23;63.32
43298;BME280;28892;55.640;37.532;2023-02-19T03:56:36;96990.72;;;-6.17;63.38
43298;BME280;28892;55.640;37.532;2023-02-19T04:01:54;96986.78;;;-6.21;63.47
43298;BME280;28892;55.640;37.532;2023-02-19T04:04:31;96982.09;;;-5.66;62.68
43298;BME280;28892;55.640;37.532;2023-02-19T04:06:59;96989.53;;;-5.93;62.35
43298;BME280;28892;55.640;37.532;2023-02-19T04:09:35;96989.13;;;-5.88;62.93
43298;BME280;28892;55.640;37.532;2023-02-19T04:12:08;96987.94;;;-5.64;62.75
43298;BME280;28892;55.640;37.532;2023-02-19T04:14:43;96978.97;;;-5.70;62.42
43298;BME280;28892;55.640;37.532;2023-02-19T04:17:18;96970.81;;;-5.75;63.10
43298;BME280;28892;55.640;37.532;2023-02-19T04:19:47;96972.03;;;-5.79;63.15
43298;BME280;28892;55.640;37.532;2023-02-19T04:22:16;96968.06;;;-6.03;63.10
43298;BME280;28892;55.640;37.532;2023-02-19T04:24:46;96973.53;;;-5.67;63.21
43298;BME280;28892;55.640;37.532;2023-02-19T04:27:13;96964.97;;;-5.77;62.91
43298;BME280;28892;55.640;37.532;2023-02-19T04:29:39;96969.97;;;-5.95;63.46
43298;BME280;28892;55.640;37.532;2023-02-19T04:32:05;96977.44;;;-5.92;64.07
43298;BME280;28892;55.640;37.532;2023-02-19T04:34:31;96976.66;;;-5.73;63.90
43298;BME280;28892;55.640;37.532;2023-02-19T04:36:57;96980.72;;;-5.90;63.45
43298;BME280;28892;55.640;37.532;2023-02-19T04:39:23;96974.31;;;-5.96;63.43
43298;BME280;28892;55.640;37.532;2023-02-19T04:41:48;96964.03;;;-5.76;62.80
43298;BME280;28892;55.640;37.532;2023-02-19T04:44:14;96964.16;;;-5.68;63.21
43298;BME280;28892;55.640;37.532;2023-02-19T04:46:40;96971.75;;;-6.06;62.72
43298;BME280;28892;55.640;37.532;2023-02-19T04:49:06;96968.78;;;-6.42;63.38
43298;BME280;28892;55.640;37.532;2023-02-19T04:51:32;96976.28;;;-6.39;64.44
43298;BME280;28892;55.640;37.532;2023-02-19T04:53:58;96963.84;;;-6.55;64.90
43298;BME280;28892;55.640;37.532;2023-02-19T04:56:23;96965.88;;;-6.58;65.01
43298;BME280;28892;55.640;37.532;2023-02-19T04:58:49;96957.91;;;-6.46;64.67
43298;BME280;28892;55.640;37.532;2023-02-19T05:01:15;96957.47;;;-6.00;63.98
43298;BME280;28892;55.640;37.532;2023-02-19T05:03:41;96955.97;;;-5.93;63.70
43298;BME280;28892;55.640;37.532;2023-02-19T05:06:10;96958.81;;;-5.96;63.90
43298;BME280;28892;55.640;37.532;2023-02-19T05:08:35;96958.41;;;-6.11;63.68
43298;BME280;28892;55.640;37.532;2023-02-19T05:11:03;96955.56;;;-5.88;63.72
43298;BME280;28892;55.640;37.532;2023-02-19T05:13:30;96949.47;;;-5.77;63.33
43298;BME280;28892;55.640;37.532;2023-02-19T05:15:57;96952.06;;;-5.77;62.88
43298;BME280;28892;55.640;37.532;2023-02-19T05:18:24;96946.34;;;-5.61;63.43
43298;BME280;28892;55.640;37.532;2023-02-19T05:20:51;96949.47;;;-5.77;62.57
43298;BME280;28892;55.640;37.532;2023-02-19T05:23:18;96947.97;;;-6.09;63.57
43298;BME280;28892;55.640;37.532;2023-02-19T05:25:44;96935.88;;;-5.89;63.51
43298;BME280;28892;55.640;37.532;2023-02-19T05:28:09;96946.22;;;-5.69;62.78
43298;BME280;28892;55.640;37.532;2023-02-19T05:30:45;96933.97;;;-5.97;63.10
43298;BME280;28892;55.640;37.532;2023-02-19T05:33:11;96930.44;;;-6.06;63.92
43298;BME280;28892;55.640;37.532;2023-02-19T05:35:47;96935.47;;;-5.94;64.46
43298;BME280;28892;55.640;37.532;2023-02-19T05:38:16;96932.88;;;-6.04;63.84
43298;BME280;28892;55.640;37.532;2023-02-19T05:40:43;96934.78;;;-5.86;64.30
43298;BME280;28892;55.640;37.532;2023-02-19T05:43:09;96939.25;;;-5.98;63.39
43298;BME280;28892;55.640;37.532;2023-02-19T05:45:36;96934.66;;;-6.05;63.49
43298;BME280;28892;55.640;37.532;2023-02-19T05:48:03;96938.72;;;-6.12;63.67
43298;BME280;28892;55.640;37.532;2023-02-19T05:50:30;96934.28;;;-6.51;63.88
43298;BME280;28892;55.640;37.532;2023-02-19T05:52:59;96938.44;;;-6.19;63.73
43298;BME280;28892;55.640;37.532;2023-02-19T05:55:25;96931.25;;;-5.95;62.91
43298;BME280;28892;55.640;37.532;2023-02-19T05:57:51;96935.69;;;-6.37;63.28
43298;BME280;28892;55.640;37.532;2023-02-19T06:00:17;96940.56;;;-6.34;64.40
43298;BME280;28892;55.640;37.532;2023-02-19T06:02:43;96942.25;;;-6.13;64.22
43298;BME280;28892;55.640;37.532;2023-02-19T06:05:09;96930.03;;;-6.11;64.10
43298;BME280;28892;55.640;37.532;2023-02-19T06:07:35;96920.53;;;-6.61;64.26
43298;BME280;28892;55.640;37.532;2023-02-19T06:10:05;96940.50;;;-6.53;64.90
43298;BME280;28892;55.640;37.532;2023-02-19T06:12:31;96927.00;;;-6.26;64.63
43298;BME280;28892;55.640;37.532;2023-02-19T06:14:57;96933.00;;;-6.15;63.94
43298;BME280;28892;55.640;37.532;2023-02-19T06:17:23;96909.25;;;-6.09;63.78
43298;BME280;28892;55.640;37.532;2023-02-19T06:19:49;96931.13;;;-5.84;63.40
43298;BME280;28892;55.640;37.532;2023-02-19T06:22:15;96933.97;;;-5.87;63.09
43298;BME280;28892;55.640;37.532;2023-02-19T06:24:41;96928.41;;;-5.92;63.50
43298;BME280;28892;55.640;37.532;2023-02-19T06:27:08;96930.28;;;-5.84;63.26
43298;BME280;28892;55.640;37.532;2023-02-19T06:29:34;96925.81;;;-5.92;63.14
43298;BME280;28892;55.640;37.532;2023-02-19T06:32:04;96929.19;;;-6.21;63.17
43298;BME280;28892;55.640;37.532;2023-02-19T06:34:30;96931.09;;;-6.23;63.59
43298;BME280;28892;55.640;37.532;2023-02-19T06:36:56;96916.78;;;-6.37;64.18
43298;BME280;28892;55.640;37.532;2023-02-19T06:39:22;96913.63;;;-6.61;65.07
43298;BME280;28892;55.640;37.532;2023-02-19T06:41:48;96915.53;;;-6.53;64.62
43298;BME280;28892;55.640;37.532;2023-02-19T06:44:14;96899.31;;;-5.94;63.44
43298;BME280;28892;55.640;37.532;2023-02-19T06:46:40;96906.63;;;-6.19;64.08
43298;BME280;28892;55.640;37.532;2023-02-19T06:49:06;96913.44;;;-5.98;63.59
43298;BME280;28892;55.640;37.532;2023-02-19T06:51:32;96896.03;;;-5.47;63.02
43298;BME280;28892;55.640;37.532;2023-02-19T06:53:58;96888.41;;;-6.47;63.71
43298;BME280;28892;55.640;37.532;2023-02-19T06:56:31;96896.91;;;-6.56;64.19
43298;BME280;28892;55.640;37.532;2023-02-19T06:59:00;96889.41;;;-6.28;65.16
43298;BME280;28892;55.640;37.532;2023-02-19T07:01:27;96908.97;;;-6.67;64.61
43298;BME280;28892;55.640;37.532;2023-02-19T07:03:53;96886.44;;;-6.65;65.01
43298;BME280;28892;55.640;37.532;2023-02-19T07:06:21;96882.59;;;-6.10;63.10
43298;BME280;28892;55.640;37.532;2023-02-19T07:08:50;96894.53;;;-6.38;63.57
43298;BME280;28892;55.640;37.532;2023-02-19T07:11:18;96874.69;;;-6.89;64.97
43298;BME280;28892;55.640;37.532;2023-02-19T07:13:45;96886.63;;;-6.47;63.63
43298;BME280;28892;55.640;37.532;2023-02-19T07:16:13;96849.59;;;-6.26;63.23
43298;BME280;28892;55.640;37.532;2023-02-19T07:18:40;96866.63;;;-6.64;64.15
43298;BME280;28892;55.640;37.532;2023-02-19T07:21:12;96866.13;;;-6.38;64.07
43298;BME280;28892;55.640;37.532;2023-02-19T07:23:39;96857.28;;;-6.65;65.01
43298;BME280;28892;55.640;37.532;2023-02-19T07:26:08;96879.72;;;-6.36;65.68
43298;BME280;28892;55.640;37.532;2023-02-19T07:28:36;96864.63;;;-6.61;66.09
43298;BME280;28892;55.640;37.532;2023-02-19T07:31:03;96886.81;;;-5.99;65.82
43298;BME280;28892;55.640;37.532;2023-02-19T07:33:29;96859.53;;;-6.01;65.03
43298;BME280;28892;55.640;37.532;2023-02-19T07:35:55;96870.38;;;-5.98;65.00
43298;BME280;28892;55.640;37.532;2023-02-19T07:38:23;96857.97;;;-6.53;65.30
43298;BME280;28892;55.640;37.532;2023-02-19T07:40:57;96865.44;;;-6.50;66.00
43298;BME280;28892;55.640;37.532;2023-02-19T07:43:25;96857.88;;;-6.32;65.63
43298;BME280;28892;55.640;37.532;2023-02-19T07:45:51;96855.28;;;-6.12;65.66
43298;BME280;28892;55.640;37.532;2023-02-19T07:48:20;96871.03;;;-6.35;65.22
43298;BME280;28892;55.640;37.532;2023-02-19T07:50:58;96863.38;;;-6.56;67.81
43298;BME280;28892;55.640;37.532;2023-02-19T07:53:26;96863.78;;;-6.71;67.07
43298;BME280;28892;55.640;37.532;2023-02-19T07:55:53;96864.38;;;-6.38;67.22
43298;BME280;28892;55.640;37.532;2023-02-19T07:58:19;96847.72;;;-6.14;66.95
43298;BME280;28892;55.640;37.532;2023-02-19T08:00:45;96854.81;;;-6.57;66.27
43298;BME280;28892;55.640;37.532;2023-02-19T08:03:10;96856.25;;;-6.33;68.87
43298;BME280;28892;55.640;37.532;2023-02-19T08:05:38;96858.03;;;-6.14;66.91
43298;BME280;28892;55.640;37.532;2023-02-19T08:08:06;96850.09;;;-6.42;66.80
43298;BME280;28892;55.640;37.532;2023-02-19T08:10:32;96845.22;;;-6.35;65.75
43298;BME280;28892;55.640;37.532;2023-02-19T08:13:17;96856.94;;;-6.01;65.17
43298;BME280;28892;55.640;37.532;2023-02-19T08:15:50;96841.16;;;-6.28;63.83
43298;BME280;28892;55.640;37.532;2023-02-19T08:18:19;96854.06;;;-6.18;65.91
43298;BME280;28892;55.640;37.532;2023-02-19T08:20:45;96846.44;;;-5.90;65.74
43298;BME280;28892;55.640;37.532;2023-02-19T08:23:14;96831.50;;;-5.67;63.63
43298;BME280;28892;55.640;37.532;2023-02-19T08:25:41;96841.31;;;-6.20;63.95
43298;BME280;28892;55.640;37.532;2023-02-19T08:28:08;96850.38;;;-5.66;64.84
43298;BME280;28892;55.640;37.532;2023-02-19T08:30:35;96840.59;;;-5.72;64.20
43298;BME280;28892;55.640;37.532;2023-02-19T08:33:03;96841.59;;;-6.03;63.76
43298;BME280;28892;55.640;37.532;2023-02-19T08:35:29;96834.63;;;-5.63;63.36
43298;BME280;28892;55.640;37.532;2023-02-19T08:38:00;96837.53;;;-5.38;63.04
43298;BME280;28892;55.640;37.532;2023-02-19T08:40:26;96841.41;;;-5.62;63.10
43298;BME280;28892;55.640;37.532;2023-02-19T08:42:54;96835.88;;;-5.29;63.30
43298;BME280;28892;55.640;37.532;2023-02-19T08:45:22;96834.78;;;-5.27;62.69
43298;BME280;28892;55.640;37.532;2023-02-19T08:47:49;96835.31;;;-5.81;63.12
43298;BME280;28892;55.640;37.532;2023-02-19T08:50:18;96842.41;;;-6.03;63.19
43298;BME280;28892;55.640;37.532;2023-02-19T08:52:44;96822.25;;;-5.89;63.09
43298;BME280;28892;55.640;37.532;2023-02-19T08:55:09;96826.13;;;-5.45;62.38
43298;BME280;28892;55.640;37.532;2023-02-19T08:57:35;96826.38;;;-5.39;62.04
43298;BME280;28892;55.640;37.532;2023-02-19T09:00:05;96820.25;;;-5.38;69.90
43298;BME280;28892;55.640;37.532;2023-02-19T09:02:34;96817.75;;;-5.57;69.31
43298;BME280;28892;55.640;37.532;2023-02-19T09:05:00;96806.25;;;-5.35;70.26
43298;BME280;28892;55.640;37.532;2023-02-19T09:07:26;96814.16;;;-5.47;62.76
43298;BME280;28892;55.640;37.532;2023-02-19T09:09:53;96809.50;;;-6.00;64.38
43298;BME280;28892;55.640;37.532;2023-02-19T09:12:19;96805.75;;;-6.16;64.45
43298;BME280;28892;55.640;37.532;2023-02-19T09:14:45;96803.03;;;-6.05;64.11
43298;BME280;28892;55.640;37.532;2023-02-19T09:17:13;96801.31;;;-5.76;64.23
43298;BME280;28892;55.640;37.532;2023-02-19T09:19:42;96810.75;;;-5.37;63.08
43298;BME280;28892;55.640;37.532;2023-02-19T09:22:11;96798.19;;;-5.22;62.42
43298;BME280;28892;55.640;37.532;2023-02-19T09:24:36;96809.56;;;-5.53;62.21
43298;BME280;28892;55.640;37.532;2023-02-19T09:27:17;96787.63;;;-5.86;63.05
43298;BME280;28892;55.640;37.532;2023-02-19T09:29:44;96798.13;;;-5.50;63.43
43298;BME280;28892;55.640;37.532;2023-02-19T09:32:13;96784.94;;;-5.47;62.42
43298;BME280;28892;55.640;37.532;2023-02-19T09:34:39;96791.38;;;-5.61;61.99
43298;BME280;28892;55.640;37.532;2023-02-19T09:37:05;96792.56;;;-6.23;63.67
43298;BME280;28892;55.640;37.532;2023-02-19T09:39:31;96787.63;;;-5.86;64.36
43298;BME280;28892;55.640;37.532;2023-02-19T09:42:23;96803.06;;;-5.77;64.56
43298;BME280;28892;55.640;37.532;2023-02-19T09:44:53;96786.84;;;-6.26;65.15
43298;BME280;28892;55.640;37.532;2023-02-19T09:47:22;96785.97;;;-5.68;64.29
43298;BME280;28892;55.640;37.532;2023-02-19T09:49:52;96780.13;;;-5.32;62.98
43298;BME280;28892;55.640;37.532;2023-02-19T09:54:59;96786.47;;;-5.64;62.99
43298;BME280;28892;55.640;37.532;2023-02-19T09:57:38;96763.50;;;-5.57;63.76
43298;BME280;28892;55.640;37.532;2023-02-19T10:00:23;96781.13;;;-5.43;62.55
43298;BME280;28892;55.640;37.532;2023-02-19T10:03:04;96761.03;;;-5.21;62.00
43298;BME280;28892;55.640;37.532;2023-02-19T10:05:32;96757.03;;;-5.34;62.43
43298;BME280;28892;55.640;37.532;2023-02-19T10:07:58;96771.13;;;-5.00;62.34
43298;BME280;28892;55.640;37.532;2023-02-19T10:10:31;96769.91;;;-4.96;62.22
43298;BME280;28892;55.640;37.532;2023-02-19T10:15:56;96741.66;;;-5.07;62.05
43298;BME280;28892;55.640;37.532;2023-02-19T10:18:24;96785.56;;;-4.51;61.28
43298;BME280;28892;55.640;37.532;2023-02-19T10:20:53;96760.34;;;-5.51;61.21
43298;BME280;28892;55.640;37.532;2023-02-19T10:23:19;96766.94;;;-5.29;62.17
43298;BME280;28892;55.640;37.532;2023-02-19T10:25:53;96760.03;;;-5.10;61.98
43298;BME280;28892;55.640;37.532;2023-02-19T10:28:26;96759.59;;;-5.06;61.71
43298;BME280;28892;55.640;37.532;2023-02-19T10:30:56;96775.84;;;-5.13;61.89
43298;BME280;28892;55.640;37.532;2023-02-19T10:33:25;96760.03;;;-5.38;61.86
43298;BME280;28892;55.640;37.532;2023-02-19T10:36:06;96773.41;;;-5.63;63.01
43298;BME280;28892;55.640;37.532;2023-02-19T10:38:51;96768.88;;;-5.89;64.67
43298;BME280;28892;55.640;37.532;2023-02-19T10:41:20;96762.00;;;-5.22;62.94
43298;BME280;28892;55.640;37.532;2023-02-19T10:43:56;96752.38;;;-4.56;61.47
43298;BME280;28892;55.640;37.532;2023-02-19T10:46:36;96761.94;;;-5.12;61.77
43298;BME280;28892;55.640;37.532;2023-02-19T10:49:36;96768.66;;;-5.20;62.66
43298;BME280;28892;55.640;37.532;2023-02-19T10:52:26;96751.09;;;-4.70;62.40
43298;BME280;28892;55.640;37.532;2023-02-19T10:55:12;96749.25;;;-4.59;61.47
43298;BME280;28892;55.640;37.532;2023-02-19T10:58:20;96741.66;;;-4.43;59.85
43298;BME280;28892;55.640;37.532;2023-02-19T11:01:20;96729.81;;;-4.45;59.43
43298;BME280;28892;55.640;37.532;2023-02-19T11:03:47;96764.22;;;-4.35;60.93
43298;BME280;28892;55.640;37.532;2023-02-19T11:06:21;96752.59;;;-4.49;60.80
43298;BME280;28892;55.640;37.532;2023-02-19T11:08:56;96739.22;;;-4.44;58.91
43298;BME280;28892;55.640;37.532;2023-02-19T11:11:40;96736.53;;;-4.71;59.55
43298;BME280;28892;55.640;37.532;2023-02-19T11:14:20;96754.44;;;-4.59;60.04
43298;BME280;28892;55.640;37.532;2023-02-19T11:16:51;96747.13;;;-4.28;59.22
43298;BME280;28892;55.640;37.532;2023-02-19T11:19:42;96745.56;;;-4.39;59.17
43298;BME280;28892;55.640;37.532;2023-02-19T11:24:54;96743.19;;;-4.50;59.79
43298;BME280;28892;55.640;37.532;2023-02-19T11:27:23;96751.31;;;-4.63;60.42
43298;BME280;28892;55.640;37.532;2023-02-19T11:29:50;96749.66;;;-4.54;60.10
43298;BME280;28892;55.640;37.532;2023-02-19T11:32:29;96748.78;;;-4.18;59.57
43298;BME280;28892;55.640;37.532;2023-02-19T11:35:18;96752.88;;;-4.16;58.46
43298;BME280;28892;55.640;37.532;2023-02-19T11:38:11;96754.56;;;-4.79;59.33
43298;BME280;28892;55.640;37.532;2023-02-19T11:40:43;96746.13;;;-4.81;59.91
43298;BME280;28892;55.640;37.532;2023-02-19T11:45:48;96737.34;;;-4.16;58.67
43298;BME280;28892;55.640;37.532;2023-02-19T11:48:44;96733.63;;;-4.86;59.01
43298;BME280;28892;55.640;37.532;2023-02-19T11:54:21;96745.41;;;-4.55;59.38
43298;BME280;28892;55.640;37.532;2023-02-19T12:05:23;96740.63;;;-4.68;59.75
43298;BME280;28892;55.640;37.532;2023-02-19T12:07:58;96742.53;;;-4.34;58.65
43298;BME280;28892;55.640;37.532;2023-02-19T12:16:04;96736.22;;;-4.68;59.38
43298;BME280;28892;55.640;37.532;2023-02-19T12:24:25;96733.59;;;-5.32;61.90
43298;BME280;28892;55.640;37.532;2023-02-19T12:27:18;96737.28;;;-5.07;62.77
43298;BME280;28892;55.640;37.532;2023-02-19T12:35:56;96730.34;;;-4.42;59.90
43298;BME280;28892;55.640;37.532;2023-02-19T12:41:42;96740.16;;;-5.10;61.19
43298;BME280;28892;55.640;37.532;2023-02-19T12:43:53;96748.69;;;-4.53;60.39
43298;BME280;28892;55.640;37.532;2023-02-19T12:46:28;96742.44;;;-4.79;60.37
43298;BME280;28892;55.640;37.532;2023-02-19T12:49:33;96748.28;;;-4.40;60.51
43298;BME280;28892;55.640;37.532;2023-02-19T12:52:06;96738.03;;;-4.50;60.26
43298;BME280;28892;55.640;37.532;2023-02-19T12:54:41;96744.16;;;-5.15;61.61
43298;BME280;28892;55.640;37.532;2023-02-19T12:57:14;96746.16;;;-4.63;60.39
43298;BME280;28892;55.640;37.532;2023-02-19T13:02:27;96742.47;;;-5.07;61.70
43298;BME280;28892;55.640;37.532;2023-02-19T13:05:03;96744.03;;;-5.24;62.71
43298;BME280;28892;55.640;37.532;2023-02-19T13:07:45;96747.66;;;-4.88;62.22
43298;BME280;28892;55.640;37.532;2023-02-19T13:10:37;96746.53;;;-5.04;62.21
43298;BME280;28892;55.640;37.532;2023-02-19T13:13:14;96735.38;;;-5.33;62.78
43298;BME280;28892;55.640;37.532;2023-02-19T13:15:42;96740.81;;;-4.98;62.39
43298;BME280;28892;55.640;37.532;2023-02-19T13:18:17;96736.47;;;-4.61;61.38
43298;BME280;28892;55.640;37.532;2023-02-19T13:20:45;96748.72;;;-4.63;61.28
43298;BME280;28892;55.640;37.532;2023-02-19T13:23:25;96750.44;;;-4.54;61.52
43298;BME280;28892;55.640;37.532;2023-02-19T13:38:08;96743.50;;;-5.27;63.36
43298;BME280;28892;55.640;37.532;2023-02-19T13:40:39;96753.47;;;-5.70;65.54
43298;BME280;28892;55.640;37.532;2023-02-19T13:45:45;96745.59;;;-5.31;64.56
43298;BME280;28892;55.640;37.532;2023-02-19T13:48:24;96740.59;;;-5.14;63.72
43298;BME280;28892;55.640;37.532;2023-02-19T13:59:32;96736.13;;;-4.94;63.92
43298;BME280;28892;55.640;37.532;2023-02-19T14:17:24;96715.72;;;-5.15;64.00
43298;BME280;28892;55.640;37.532;2023-02-19T14:19:57;96717.72;;;-5.37;64.55
43298;BME280;28892;55.640;37.532;2023-02-19T14:25:08;96710.16;;;-4.74;62.59
43298;BME280;28892;55.640;37.532;2023-02-19T14:27:44;96711.47;;;-5.35;64.09
43298;BME280;28892;55.640;37.532;2023-02-19T14:30:11;96718.53;;;-5.37;64.83
43298;BME280;28892;55.640;37.532;2023-02-19T14:32:39;96712.94;;;-5.32;65.43
43298;BME280;28892;55.640;37.532;2023-02-19T14:35:15;96710.97;;;-5.20;64.79
43298;BME280;28892;55.640;37.532;2023-02-19T14:37:45;96707.28;;;-5.45;65.79
43298;BME280;28892;55.640;37.532;2023-02-19T14:40:18;96715.38;;;-5.30;64.96
43298;BME280;28892;55.640;37.532;2023-02-19T14:42:47;96706.09;;;-5.51;65.58
43298;BME280;28892;55.640;37.532;2023-02-19T14:45:14;96700.69;;;-5.30;64.83
43298;BME280;28892;55.640;37.532;2023-02-19T14:47:41;96693.69;;;-5.48;65.21
43298;BME280;28892;55.640;37.532;2023-02-19T14:50:12;96708.66;;;-5.41;65.16
43298;BME280;28892;55.640;37.532;2023-02-19T14:52:43;96699.78;;;-5.11;64.52
43298;BME280;28892;55.640;37.532;2023-02-19T14:55:30;96700.53;;;-5.28;64.81
43298;BME280;28892;55.640;37.532;2023-02-19T14:58:00;96702.16;;;-5.55;64.71